首页
METAR-TAF:

METAR-TAF

机场 :

Iowa County Airport

Mineral Point, 威斯康辛州, 美国

纬度: 42-53-07N, 经度: 090-13-55W, 海拔: 359米

当前天气观测

该预报发布于17分钟前的06:55 UTC
风速9节,风向南转南东
温度 0°C
湿度 100%
气压 1019 hPa
能見度: 11.3公里
散云层高于11000英尺

METAR: KMRJ 170655Z AUTO 16009KT 7SM SCT110 00/00 A3010 RMK AO2

时间: 01:12 (07:12 UTC)


TAF: 丢失

超过4000个机场的气象观测和天气预报(METAR&TAF报告)。

可查询的气象台以黄色和红色小点在地图上表示。

将鼠标移到小点上方,可查看气象台名称。

然后点击查看天气观测和预报。

如需切换地图:点击带黑十字的绿色按钮放大地图;点击带横线的绿色按钮缩小地图;或者点击绿色箭头查看邻近地区的地图。


METAR-TAF: